Hauptseite
METAR-TAF:

METAR-TAF

Flughäfen :

Flughafen Libreville Leon M'ba

Libreville, Gabun

Breite: 00-27N, Länge: 009-25E, Höhe: 12 m

Beobachtung

Neuester Wetterbericht von vor 32 Minuten, um 22:30 UTC
Wind 7 kt aus Südwest, variierte zwischen Süd und West/Südwest
Temperatur 26°C
Luftfeuchtigkeit 84%
Luftdruck 1013 hPa
Sichtweite 10 km oder mehr
Leicht bewölkt in der Höhe von 1400 ft

METAR: FOOL 232230Z 22007KT 190V250 9999 FEW014 26/23 Q1013 NOSIG

Zeit: 00:02 (23:02 UTC)

Prognose

Neuester Wetterbericht von vor 6 Stunden und 2 Minuten, um 17:00 UTC
Gültige Prognose vom 23 um 18 UTC bis 24 um 24 UTC
Wind 7 kt aus Süd/Südwest
Sichtweite 10 km oder mehr
Aufgelockert bewölkt in der Höhe von 1200 ft
Durchbrochene Bewölkung in der Höhe von 3000 ft

TAF: FOOL 231700Z 2318/2424 20007KT 9999 SCT012 BKN030

Wetterbeobachtungen und Prognosen von mehr als 4000 Flughäfen (METAR und TAF Bericht).

Die verfügbaren Stationen werden durch gelbe und rote Markierungen auf der Karte dargestellt.

Führen Sie die Maus auf sie, um den Namen der Station zu sehen.

Darauf klicken, um die Beobachtung von Wetterbeobachtungen und Prognosen zu sehen.

Um die Karte zu ändern : klicken Sie auf den grünen Tasten mit einem schwarzen Kreuz Zum Vergrößern, auf den grünen Button mit einem Gedankenstrich zu verkleinern, oder auf die grünen Pfeile für benachbarte Karten.


METAR-TAF: